Dolphin — WDJ5398 — position and weather

sailwx.info

Track history (hours):
 
Tides and Currents Weather Stations Pressure Air Temp Water Temp Dewpoint Dewpoint Depression Visibility Wind Speed Wind Dir Waves Ship Positions

Dolphin

Owner: Great South Bay, Inc., Miami, FL. More information available from US FCC via Universal Licensing System and Coast Guard Vessel Documentation Center.

Last reported at 2018-Aug-07 05:11 UTC. Time now 2018-Aug-20 16:20 UTC.
Position N 42°21' W 070°30'.
Warning: this ship's position is 13 days out of date.

Length 17 m; draft 2 m.

Type: Pleasure craft. MMSI: 367787260.

Date/timePositionNaut miles runAvg speedWind from/ knotsBaromVisibWave heightAir tempDewpointWater temp
2018-Aug-07 05:11N 42°21' W 070°30'2 8.6
2018-Aug-07 04:59N 42°23' W 070°30'4 8.6
2018-Aug-07 04:30N 42°27' W 070°30'4 8.7
2018-Aug-07 03:59N 42°31' W 070°30'4 8.9
2018-Aug-07 03:30N 42°35' W 070°30'5 9.2
2018-Aug-07 03:00N 42°39' W 070°27'99 9.9
2018-Aug-06 16:56N 43°59' W 069°07'4 8.7
2018-Aug-06 16:30N 44°03' W 069°04'3 6.9
2018-Aug-06 16:00N 44°06' W 069°04'0 0.9
2018-Aug-06 15:30N 44°06' W 069°04'5 9.5
2018-Aug-06 15:00N 44°11' W 069°02'  
2018-Aug-03 16:54N 44°12' W 069°04'0 0.1
2018-Aug-03 16:30N 44°13' W 069°04'0 0.0
2018-Aug-03 16:00N 44°13' W 069°04'1 2.0
2018-Aug-03 15:29N 44°12' W 069°02'4 8.3
2018-Aug-03 15:00N 44°08' W 068°60'4 6.9
2018-Aug-03 14:30N 44°06' W 068°56'  
2018-Jul-29 15:33N 44°08' W 068°44'1 9.6
2018-Jul-29 15:26N 44°08' W 068°45'4 9.4
2018-Jul-29 15:00N 44°08' W 068°51'7 7.0
2018-Jul-29 14:00N 44°09' W 069°00'4 8.8
2018-Jul-29 13:30N 44°12' W 069°03'0 0.3
2018-Jul-29 12:55N 44°12' W 069°04'0 0.0
2018-Jul-28 13:27N 44°12' W 069°04'0 0.0
2018-Jul-28 12:58N 44°12' W 069°04'0 0.0
2018-Jul-28 12:30N 44°12' W 069°04'  
Track history (hours):
 
Tides and Currents Weather Stations Pressure Air Temp Water Temp Dewpoint Dewpoint Depression Visibility Wind Speed Wind Dir Waves Ship Positions

Dolphin

Owner: Great South Bay, Inc., Miami, FL. More information available from US FCC via Universal Licensing System and Coast Guard Vessel Documentation Center.

Last reported at 2018-Aug-07 05:11 UTC. Time now 2018-Aug-20 16:20 UTC.
Position N 42°21' W 070°30'.
Warning: this ship's position is 13 days out of date.

Length 17 m; draft 2 m.

Type: Pleasure craft. MMSI: 367787260.

Date/timePositionNaut miles runAvg speedWind from/ knotsBaromVisibWave heightAir tempDewpointWater temp
2018-Aug-07 05:11N 42°21' W 070°30'2 8.6
2018-Aug-07 04:59N 42°23' W 070°30'4 8.6
2018-Aug-07 04:30N 42°27' W 070°30'4 8.7
2018-Aug-07 03:59N 42°31' W 070°30'4 8.9
2018-Aug-07 03:30N 42°35' W 070°30'5 9.2
2018-Aug-07 03:00N 42°39' W 070°27'99 9.9
2018-Aug-06 16:56N 43°59' W 069°07'4 8.7
2018-Aug-06 16:30N 44°03' W 069°04'3 6.9
2018-Aug-06 16:00N 44°06' W 069°04'0 0.9
2018-Aug-06 15:30N 44°06' W 069°04'5 9.5
2018-Aug-06 15:00N 44°11' W 069°02'  
2018-Aug-03 16:54N 44°12' W 069°04'0 0.1
2018-Aug-03 16:30N 44°13' W 069°04'0 0.0
2018-Aug-03 16:00N 44°13' W 069°04'1 2.0
2018-Aug-03 15:29N 44°12' W 069°02'4 8.3
2018-Aug-03 15:00N 44°08' W 068°60'4 6.9
2018-Aug-03 14:30N 44°06' W 068°56'  
2018-Jul-29 15:33N 44°08' W 068°44'1 9.6
2018-Jul-29 15:26N 44°08' W 068°45'4 9.4
2018-Jul-29 15:00N 44°08' W 068°51'7 7.0
2018-Jul-29 14:00N 44°09' W 069°00'4 8.8
2018-Jul-29 13:30N 44°12' W 069°03'0 0.3
2018-Jul-29 12:55N 44°12' W 069°04'0 0.0
2018-Jul-28 13:27N 44°12' W 069°04'0 0.0
2018-Jul-28 12:58N 44°12' W 069°04'0 0.0
2018-Jul-28 12:30N 44°12' W 069°04'  

Dump ship's entire track history